Bethlehem, New York
Current Conditions -  °F | °C
As of 5:51 PM on Wednesday 22 Oct 2014 (Local Time) from KALB Reporting Station
Overcast Overcast  
Wind Chill: 11°   Ceiling: 1700
Heat Index: 11°   Visibility: 10mi
Dew Point:   Wind: 15mph
Humidity: 80%   Direction: 20°NNE
Pressure: 30"   Gusts: 22mph
Location:  42.6018°N, 73.8686°W
Report Text: KALB 222151Z 02013G19KT 10SM BKN017 OVC036 11/07 A3000 RMK AO2 RAE40 SLP161 P0001 T01060072
Loading
Personal Weather Stations






























Interactive Weather Map
Tropical Storm Tracking
New forecast layout! Learn more

10-Day Weather Forecast

Advertisements
Track Severe Weather on mobile